sensor_id;sensor_type;location;lat;lon;timestamp;P1;durP1;ratioP1;P2;durP2;ratioP2
5245;SDS011;54412;51.206;6.888;2022-07-23T00:01:35;18.27;;;12.90;;
5245;SDS011;54412;51.206;6.888;2022-07-23T00:04:00;19.87;;;13.50;;
5245;SDS011;54412;51.206;6.888;2022-07-23T00:06:27;19.97;;;13.20;;
5245;SDS011;54412;51.206;6.888;2022-07-23T00:08:52;25.57;;;14.37;;
5245;SDS011;54412;51.206;6.888;2022-07-23T00:11:18;20.63;;;13.87;;
5245;SDS011;54412;51.206;6.888;2022-07-23T00:13:44;20.23;;;13.93;;
5245;SDS011;54412;51.206;6.888;2022-07-23T00:16:10;18.30;;;13.57;;
5245;SDS011;54412;51.206;6.888;2022-07-23T00:18:36;18.70;;;13.10;;
5245;SDS011;54412;51.206;6.888;2022-07-23T00:21:02;23.23;;;13.47;;
5245;SDS011;54412;51.206;6.888;2022-07-23T00:23:27;21.90;;;13.30;;
5245;SDS011;54412;51.206;6.888;2022-07-23T00:25:55;15.47;;;12.50;;
5245;SDS011;54412;51.206;6.888;2022-07-23T00:28:21;17.57;;;12.50;;
5245;SDS011;54412;51.206;6.888;2022-07-23T00:30:47;20.07;;;12.73;;
5245;SDS011;54412;51.206;6.888;2022-07-23T00:33:13;16.63;;;13.47;;
5245;SDS011;54412;51.206;6.888;2022-07-23T00:35:39;18.77;;;13.37;;
5245;SDS011;54412;51.206;6.888;2022-07-23T00:38:06;16.60;;;13.00;;
5245;SDS011;54412;51.206;6.888;2022-07-23T00:40:37;16.13;;;12.50;;
5245;SDS011;54412;51.206;6.888;2022-07-23T00:43:04;17.80;;;13.30;;
5245;SDS011;54412;51.206;6.888;2022-07-23T00:45:30;19.73;;;13.77;;
5245;SDS011;54412;51.206;6.888;2022-07-23T00:47:58;18.57;;;13.77;;
5245;SDS011;54412;51.206;6.888;2022-07-23T00:50:25;18.23;;;13.80;;
5245;SDS011;54412;51.206;6.888;2022-07-23T00:52:51;16.57;;;13.97;;
5245;SDS011;54412;51.206;6.888;2022-07-23T00:55:18;19.70;;;14.10;;
5245;SDS011;54412;51.206;6.888;2022-07-23T00:57:44;20.30;;;14.10;;
5245;SDS011;54412;51.206;6.888;2022-07-23T01:00:11;17.17;;;13.20;;
5245;SDS011;54412;51.206;6.888;2022-07-23T01:02:39;16.73;;;14.57;;
5245;SDS011;54412;51.206;6.888;2022-07-23T01:05:06;21.90;;;13.57;;
5245;SDS011;54412;51.206;6.888;2022-07-23T01:07:33;31.63;;;14.93;;
5245;SDS011;54412;51.206;6.888;2022-07-23T01:09:59;18.43;;;14.47;;
5245;SDS011;54412;51.206;6.888;2022-07-23T01:12:26;20.13;;;13.67;;
5245;SDS011;54412;51.206;6.888;2022-07-23T01:14:56;21.03;;;14.80;;
5245;SDS011;54412;51.206;6.888;2022-07-23T01:17:23;20.13;;;13.30;;
5245;SDS011;54412;51.206;6.888;2022-07-23T01:19:49;20.57;;;13.60;;
5245;SDS011;54412;51.206;6.888;2022-07-23T01:22:15;19.53;;;12.80;;
5245;SDS011;54412;51.206;6.888;2022-07-23T01:24:44;15.10;;;12.50;;
5245;SDS011;54412;51.206;6.888;2022-07-23T01:27:11;15.53;;;12.47;;
5245;SDS011;54412;51.206;6.888;2022-07-23T01:29:37;14.90;;;12.97;;
5245;SDS011;54412;51.206;6.888;2022-07-23T01:32:04;19.07;;;13.73;;
5245;SDS011;54412;51.206;6.888;2022-07-23T01:34:31;17.53;;;13.40;;
5245;SDS011;54412;51.206;6.888;2022-07-23T01:36:56;21.50;;;13.07;;
5245;SDS011;54412;51.206;6.888;2022-07-23T01:39:22;15.67;;;11.47;;
5245;SDS011;54412;51.206;6.888;2022-07-23T01:41:48;20.57;;;12.37;;
5245;SDS011;54412;51.206;6.888;2022-07-23T01:44:13;16.03;;;12.20;;
5245;SDS011;54412;51.206;6.888;2022-07-23T01:46:40;21.50;;;12.57;;
5245;SDS011;54412;51.206;6.888;2022-07-23T01:49:06;17.43;;;12.80;;
5245;SDS011;54412;51.206;6.888;2022-07-23T01:51:31;15.20;;;12.60;;
5245;SDS011;54412;51.206;6.888;2022-07-23T01:53:57;13.80;;;11.27;;
5245;SDS011;54412;51.206;6.888;2022-07-23T01:56:23;19.83;;;12.93;;
5245;SDS011;54412;51.206;6.888;2022-07-23T01:58:49;16.90;;;12.53;;
5245;SDS011;54412;51.206;6.888;2022-07-23T02:01:14;16.83;;;12.90;;
5245;SDS011;54412;51.206;6.888;2022-07-23T02:03:41;18.10;;;12.27;;
5245;SDS011;54412;51.206;6.888;2022-07-23T02:06:07;13.03;;;11.57;;
5245;SDS011;54412;51.206;6.888;2022-07-23T02:08:33;15.83;;;12.43;;
5245;SDS011;54412;51.206;6.888;2022-07-23T02:10:58;15.93;;;12.67;;
5245;SDS011;54412;51.206;6.888;2022-07-23T02:13:24;22.00;;;13.93;;
5245;SDS011;54412;51.206;6.888;2022-07-23T02:15:50;22.37;;;14.50;;
5245;SDS011;54412;51.206;6.888;2022-07-23T02:18:16;19.40;;;14.23;;
5245;SDS011;54412;51.206;6.888;2022-07-23T02:20:42;17.53;;;12.70;;
5245;SDS011;54412;51.206;6.888;2022-07-23T02:23:09;22.20;;;14.10;;
5245;SDS011;54412;51.206;6.888;2022-07-23T02:25:35;21.23;;;11.80;;
5245;SDS011;54412;51.206;6.888;2022-07-23T02:28:01;17.53;;;12.90;;
5245;SDS011;54412;51.206;6.888;2022-07-23T02:30:27;19.93;;;13.37;;
5245;SDS011;54412;51.206;6.888;2022-07-23T02:32:53;20.30;;;13.03;;
5245;SDS011;54412;51.206;6.888;2022-07-23T02:35:19;18.70;;;12.47;;
5245;SDS011;54412;51.206;6.888;2022-07-23T02:37:44;16.40;;;13.67;;
5245;SDS011;54412;51.206;6.888;2022-07-23T02:40:10;17.67;;;13.47;;
5245;SDS011;54412;51.206;6.888;2022-07-23T02:42:36;18.03;;;13.50;;
5245;SDS011;54412;51.206;6.888;2022-07-23T02:45:02;18.60;;;13.27;;
5245;SDS011;54412;51.206;6.888;2022-07-23T02:47:28;24.53;;;13.20;;
5245;SDS011;54412;51.206;6.888;2022-07-23T02:49:54;21.10;;;12.43;;
5245;SDS011;54412;51.206;6.888;2022-07-23T02:52:20;18.27;;;12.30;;
5245;SDS011;54412;51.206;6.888;2022-07-23T02:54:46;18.50;;;13.20;;
5245;SDS011;54412;51.206;6.888;2022-07-23T02:57:11;21.33;;;12.83;;
5245;SDS011;54412;51.206;6.888;2022-07-23T02:59:37;18.60;;;13.23;;
5245;SDS011;54412;51.206;6.888;2022-07-23T03:02:03;21.47;;;12.73;;
5245;SDS011;54412;51.206;6.888;2022-07-23T03:04:28;17.23;;;13.77;;
5245;SDS011;54412;51.206;6.888;2022-07-23T03:06:54;19.93;;;13.00;;
5245;SDS011;54412;51.206;6.888;2022-07-23T03:09:20;20.03;;;15.60;;
5245;SDS011;54412;51.206;6.888;2022-07-23T03:11:45;20.83;;;13.80;;
5245;SDS011;54412;51.206;6.888;2022-07-23T03:14:11;20.67;;;13.13;;
5245;SDS011;54412;51.206;6.888;2022-07-23T03:16:38;19.17;;;13.10;;
5245;SDS011;54412;51.206;6.888;2022-07-23T03:19:04;16.80;;;13.57;;
5245;SDS011;54412;51.206;6.888;2022-07-23T03:21:29;16.07;;;12.90;;
5245;SDS011;54412;51.206;6.888;2022-07-23T03:23:55;17.80;;;13.20;;
5245;SDS011;54412;51.206;6.888;2022-07-23T03:26:21;18.37;;;14.40;;
5245;SDS011;54412;51.206;6.888;2022-07-23T03:28:50;13.77;;;11.13;;
5245;SDS011;54412;51.206;6.888;2022-07-23T03:31:17;20.00;;;12.50;;
5245;SDS011;54412;51.206;6.888;2022-07-23T03:33:42;18.33;;;11.93;;
5245;SDS011;54412;51.206;6.888;2022-07-23T03:36:08;19.70;;;14.30;;
5245;SDS011;54412;51.206;6.888;2022-07-23T03:38:34;16.10;;;12.60;;
5245;SDS011;54412;51.206;6.888;2022-07-23T03:40:59;19.07;;;14.33;;
5245;SDS011;54412;51.206;6.888;2022-07-23T03:43:25;22.00;;;14.80;;
5245;SDS011;54412;51.206;6.888;2022-07-23T03:45:51;22.23;;;14.33;;
5245;SDS011;54412;51.206;6.888;2022-07-23T03:48:17;19.87;;;14.97;;
5245;SDS011;54412;51.206;6.888;2022-07-23T03:50:42;18.70;;;13.77;;
5245;SDS011;54412;51.206;6.888;2022-07-23T03:53:09;20.10;;;14.20;;
5245;SDS011;54412;51.206;6.888;2022-07-23T03:55:35;20.47;;;14.80;;
5245;SDS011;54412;51.206;6.888;2022-07-23T03:58:01;35.63;;;14.13;;
5245;SDS011;54412;51.206;6.888;2022-07-23T04:00:27;25.93;;;14.00;;
5245;SDS011;54412;51.206;6.888;2022-07-23T04:02:53;21.47;;;14.00;;
5245;SDS011;54412;51.206;6.888;2022-07-23T04:05:18;19.47;;;13.30;;
5245;SDS011;54412;51.206;6.888;2022-07-23T04:07:44;23.93;;;14.30;;
5245;SDS011;54412;51.206;6.888;2022-07-23T04:10:10;18.80;;;13.77;;
5245;SDS011;54412;51.206;6.888;2022-07-23T04:12:35;20.00;;;14.43;;
5245;SDS011;54412;51.206;6.888;2022-07-23T04:15:01;43.13;;;16.27;;
5245;SDS011;54412;51.206;6.888;2022-07-23T04:17:27;20.63;;;14.43;;
5245;SDS011;54412;51.206;6.888;2022-07-23T04:19:53;18.53;;;14.10;;
5245;SDS011;54412;51.206;6.888;2022-07-23T04:22:19;24.33;;;13.43;;
5245;SDS011;54412;51.206;6.888;2022-07-23T04:24:45;21.27;;;14.60;;
5245;SDS011;54412;51.206;6.888;2022-07-23T04:27:11;21.07;;;14.33;;
5245;SDS011;54412;51.206;6.888;2022-07-23T04:29:36;23.33;;;14.87;;
5245;SDS011;54412;51.206;6.888;2022-07-23T04:32:02;21.03;;;14.33;;
5245;SDS011;54412;51.206;6.888;2022-07-23T04:34:28;21.13;;;14.57;;
5245;SDS011;54412;51.206;6.888;2022-07-23T04:36:54;25.70;;;16.23;;
5245;SDS011;54412;51.206;6.888;2022-07-23T04:39:19;20.40;;;14.70;;
5245;SDS011;54412;51.206;6.888;2022-07-23T04:41:45;21.50;;;15.30;;
5245;SDS011;54412;51.206;6.888;2022-07-23T04:44:11;21.50;;;13.50;;
5245;SDS011;54412;51.206;6.888;2022-07-23T04:46:37;20.53;;;16.40;;
5245;SDS011;54412;51.206;6.888;2022-07-23T04:49:02;18.43;;;14.40;;
5245;SDS011;54412;51.206;6.888;2022-07-23T04:51:28;21.50;;;15.70;;
5245;SDS011;54412;51.206;6.888;2022-07-23T04:53:54;20.07;;;13.60;;
5245;SDS011;54412;51.206;6.888;2022-07-23T04:56:20;18.50;;;14.70;;
5245;SDS011;54412;51.206;6.888;2022-07-23T04:58:46;22.90;;;15.87;;
5245;SDS011;54412;51.206;6.888;2022-07-23T05:01:12;21.17;;;16.00;;
5245;SDS011;54412;51.206;6.888;2022-07-23T05:03:38;21.47;;;14.77;;
5245;SDS011;54412;51.206;6.888;2022-07-23T05:06:03;16.33;;;13.57;;
5245;SDS011;54412;51.206;6.888;2022-07-23T05:08:29;16.47;;;13.90;;
5245;SDS011;54412;51.206;6.888;2022-07-23T05:10:55;17.93;;;14.60;;
5245;SDS011;54412;51.206;6.888;2022-07-23T05:13:21;17.30;;;14.40;;
5245;SDS011;54412;51.206;6.888;2022-07-23T05:15:47;22.40;;;14.67;;
5245;SDS011;54412;51.206;6.888;2022-07-23T05:18:12;17.70;;;13.43;;
5245;SDS011;54412;51.206;6.888;2022-07-23T05:20:38;18.37;;;14.10;;
5245;SDS011;54412;51.206;6.888;2022-07-23T05:23:04;19.47;;;15.20;;
5245;SDS011;54412;51.206;6.888;2022-07-23T05:25:30;18.30;;;14.27;;
5245;SDS011;54412;51.206;6.888;2022-07-23T05:27:55;17.40;;;13.87;;
5245;SDS011;54412;51.206;6.888;2022-07-23T05:30:21;18.60;;;14.40;;
5245;SDS011;54412;51.206;6.888;2022-07-23T05:32:47;20.07;;;13.70;;
5245;SDS011;54412;51.206;6.888;2022-07-23T05:35:12;21.07;;;14.37;;
5245;SDS011;54412;51.206;6.888;2022-07-23T05:37:38;14.27;;;12.60;;
5245;SDS011;54412;51.206;6.888;2022-07-23T05:40:04;18.80;;;14.63;;
5245;SDS011;54412;51.206;6.888;2022-07-23T05:42:34;17.73;;;13.00;;
5245;SDS011;54412;51.206;6.888;2022-07-23T05:45:04;19.93;;;13.40;;
5245;SDS011;54412;51.206;6.888;2022-07-23T05:47:41;14.90;;;13.30;;
5245;SDS011;54412;51.206;6.888;2022-07-23T05:50:09;16.70;;;14.20;;
5245;SDS011;54412;51.206;6.888;2022-07-23T05:52:36;17.30;;;13.57;;
5245;SDS011;54412;51.206;6.888;2022-07-23T05:55:03;20.23;;;13.30;;
5245;SDS011;54412;51.206;6.888;2022-07-23T05:57:29;14.00;;;11.90;;
5245;SDS011;54412;51.206;6.888;2022-07-23T05:59:55;17.37;;;13.10;;
5245;SDS011;54412;51.206;6.888;2022-07-23T06:02:21;20.10;;;14.27;;
5245;SDS011;54412;51.206;6.888;2022-07-23T06:04:46;14.80;;;11.90;;
5245;SDS011;54412;51.206;6.888;2022-07-23T06:07:12;16.10;;;13.00;;
5245;SDS011;54412;51.206;6.888;2022-07-23T06:09:38;18.47;;;12.73;;
5245;SDS011;54412;51.206;6.888;2022-07-23T06:12:04;16.83;;;13.07;;
5245;SDS011;54412;51.206;6.888;2022-07-23T06:14:30;16.43;;;13.50;;
5245;SDS011;54412;51.206;6.888;2022-07-23T06:16:56;20.13;;;13.50;;
5245;SDS011;54412;51.206;6.888;2022-07-23T06:19:21;16.00;;;12.63;;
5245;SDS011;54412;51.206;6.888;2022-07-23T06:21:47;19.40;;;13.90;;
5245;SDS011;54412;51.206;6.888;2022-07-23T06:24:13;17.83;;;14.20;;
5245;SDS011;54412;51.206;6.888;2022-07-23T06:26:39;20.77;;;14.17;;
5245;SDS011;54412;51.206;6.888;2022-07-23T06:29:04;16.93;;;13.53;;
5245;SDS011;54412;51.206;6.888;2022-07-23T06:31:30;26.40;;;13.33;;
5245;SDS011;54412;51.206;6.888;2022-07-23T06:33:55;18.50;;;13.40;;
5245;SDS011;54412;51.206;6.888;2022-07-23T06:36:21;18.63;;;13.27;;
5245;SDS011;54412;51.206;6.888;2022-07-23T06:38:47;17.37;;;13.20;;
5245;SDS011;54412;51.206;6.888;2022-07-23T06:41:12;16.97;;;13.87;;
5245;SDS011;54412;51.206;6.888;2022-07-23T06:43:38;16.40;;;12.53;;
5245;SDS011;54412;51.206;6.888;2022-07-23T06:46:04;15.23;;;12.80;;
5245;SDS011;54412;51.206;6.888;2022-07-23T06:48:30;14.07;;;12.57;;
5245;SDS011;54412;51.206;6.888;2022-07-23T06:50:55;19.10;;;14.73;;
5245;SDS011;54412;51.206;6.888;2022-07-23T06:53:21;18.13;;;12.97;;
5245;SDS011;54412;51.206;6.888;2022-07-23T06:55:47;18.27;;;12.33;;
5245;SDS011;54412;51.206;6.888;2022-07-23T06:58:13;32.03;;;13.13;;
5245;SDS011;54412;51.206;6.888;2022-07-23T07:00:39;14.67;;;11.00;;
5245;SDS011;54412;51.206;6.888;2022-07-23T07:03:05;15.00;;;11.40;;
5245;SDS011;54412;51.206;6.888;2022-07-23T07:05:31;14.70;;;10.73;;
5245;SDS011;54412;51.206;6.888;2022-07-23T07:07:56;12.97;;;10.60;;
5245;SDS011;54412;51.206;6.888;2022-07-23T07:10:22;17.20;;;12.20;;
5245;SDS011;54412;51.206;6.888;2022-07-23T07:12:48;13.50;;;11.80;;
5245;SDS011;54412;51.206;6.888;2022-07-23T07:15:13;13.90;;;10.97;;
5245;SDS011;54412;51.206;6.888;2022-07-23T07:17:39;20.23;;;10.97;;
5245;SDS011;54412;51.206;6.888;2022-07-23T07:20:07;15.47;;;10.60;;
5245;SDS011;54412;51.206;6.888;2022-07-23T07:22:33;16.43;;;10.73;;
5245;SDS011;54412;51.206;6.888;2022-07-23T07:24:59;15.93;;;11.50;;
5245;SDS011;54412;51.206;6.888;2022-07-23T07:27:25;12.57;;;9.70;;
5245;SDS011;54412;51.206;6.888;2022-07-23T07:29:50;15.27;;;11.57;;
5245;SDS011;54412;51.206;6.888;2022-07-23T07:32:16;14.40;;;11.33;;
5245;SDS011;54412;51.206;6.888;2022-07-23T07:34:42;20.53;;;12.10;;
5245;SDS011;54412;51.206;6.888;2022-07-23T07:37:08;15.17;;;11.57;;
5245;SDS011;54412;51.206;6.888;2022-07-23T07:39:33;15.50;;;11.37;;
5245;SDS011;54412;51.206;6.888;2022-07-23T07:41:59;17.83;;;12.20;;
5245;SDS011;54412;51.206;6.888;2022-07-23T07:44:25;16.80;;;10.63;;
5245;SDS011;54412;51.206;6.888;2022-07-23T07:46:50;24.03;;;10.17;;
5245;SDS011;54412;51.206;6.888;2022-07-23T07:49:16;15.00;;;10.60;;
5245;SDS011;54412;51.206;6.888;2022-07-23T07:51:44;16.00;;;10.87;;
5245;SDS011;54412;51.206;6.888;2022-07-23T07:54:11;17.30;;;11.10;;
5245;SDS011;54412;51.206;6.888;2022-07-23T07:56:38;17.93;;;12.40;;
5245;SDS011;54412;51.206;6.888;2022-07-23T07:59:03;15.30;;;11.60;;
5245;SDS011;54412;51.206;6.888;2022-07-23T08:01:29;17.23;;;11.80;;
5245;SDS011;54412;51.206;6.888;2022-07-23T08:03:55;18.30;;;12.13;;
5245;SDS011;54412;51.206;6.888;2022-07-23T08:06:21;18.47;;;12.73;;
5245;SDS011;54412;51.206;6.888;2022-07-23T08:08:47;17.80;;;13.13;;
5245;SDS011;54412;51.206;6.888;2022-07-23T08:11:13;18.27;;;11.37;;
5245;SDS011;54412;51.206;6.888;2022-07-23T08:13:39;13.47;;;10.50;;
5245;SDS011;54412;51.206;6.888;2022-07-23T08:16:04;14.27;;;10.73;;
5245;SDS011;54412;51.206;6.888;2022-07-23T08:18:30;9.90;;;8.90;;
5245;SDS011;54412;51.206;6.888;2022-07-23T08:20:56;14.10;;;9.80;;
5245;SDS011;54412;51.206;6.888;2022-07-23T08:23:21;14.73;;;9.40;;
5245;SDS011;54412;51.206;6.888;2022-07-23T08:25:47;8.23;;;7.53;;
5245;SDS011;54412;51.206;6.888;2022-07-23T08:28:14;18.17;;;8.80;;
5245;SDS011;54412;51.206;6.888;2022-07-23T08:30:41;34.23;;;15.20;;
5245;SDS011;54412;51.206;6.888;2022-07-23T08:33:10;37.33;;;13.87;;
5245;SDS011;54412;51.206;6.888;2022-07-23T08:35:48;19.07;;;11.97;;
5245;SDS011;54412;51.206;6.888;2022-07-23T08:38:18;18.53;;;11.63;;
5245;SDS011;54412;51.206;6.888;2022-07-23T08:40:47;15.90;;;11.10;;
5245;SDS011;54412;51.206;6.888;2022-07-23T08:43:16;20.40;;;9.53;;
5245;SDS011;54412;51.206;6.888;2022-07-23T08:45:49;16.33;;;10.83;;
5245;SDS011;54412;51.206;6.888;2022-07-23T08:48:21;18.17;;;13.10;;
5245;SDS011;54412;51.206;6.888;2022-07-23T08:50:54;14.33;;;11.63;;
5245;SDS011;54412;51.206;6.888;2022-07-23T08:53:25;18.07;;;11.90;;
5245;SDS011;54412;51.206;6.888;2022-07-23T08:55:57;13.73;;;11.27;;
5245;SDS011;54412;51.206;6.888;2022-07-23T08:58:26;15.10;;;11.43;;
5245;SDS011;54412;51.206;6.888;2022-07-23T09:00:52;13.73;;;10.80;;
5245;SDS011;54412;51.206;6.888;2022-07-23T09:05:49;24.30;;;11.97;;
5245;SDS011;54412;51.206;6.888;2022-07-23T09:08:17;13.73;;;10.93;;
5245;SDS011;54412;51.206;6.888;2022-07-23T09:18:58;17.20;;;12.70;;
5245;SDS011;54412;51.206;6.888;2022-07-23T09:24:05;18.10;;;14.70;;
5245;SDS011;54412;51.206;6.888;2022-07-23T09:26:37;15.67;;;13.50;;
5245;SDS011;54412;51.206;6.888;2022-07-23T09:29:12;16.70;;;12.73;;
5245;SDS011;54412;51.206;6.888;2022-07-23T09:34:30;20.10;;;13.37;;
5245;SDS011;54412;51.206;6.888;2022-07-23T09:37:11;16.33;;;13.07;;
5245;SDS011;54412;51.206;6.888;2022-07-23T09:39:39;16.20;;;13.60;;
5245;SDS011;54412;51.206;6.888;2022-07-23T09:42:13;17.07;;;12.93;;
5245;SDS011;54412;51.206;6.888;2022-07-23T09:44:41;17.73;;;14.50;;
5245;SDS011;54412;51.206;6.888;2022-07-23T09:47:09;15.57;;;12.60;;
5245;SDS011;54412;51.206;6.888;2022-07-23T09:49:35;17.20;;;13.23;;
5245;SDS011;54412;51.206;6.888;2022-07-23T09:52:01;18.23;;;14.20;;
5245;SDS011;54412;51.206;6.888;2022-07-23T09:54:29;22.57;;;14.27;;
5245;SDS011;54412;51.206;6.888;2022-07-23T09:57:03;19.40;;;12.93;;
5245;SDS011;54412;51.206;6.888;2022-07-23T09:59:39;17.97;;;13.60;;
5245;SDS011;54412;51.206;6.888;2022-07-23T10:02:07;18.03;;;11.70;;
5245;SDS011;54412;51.206;6.888;2022-07-23T10:04:35;17.10;;;12.33;;
5245;SDS011;54412;51.206;6.888;2022-07-23T10:07:03;14.50;;;12.27;;
5245;SDS011;54412;51.206;6.888;2022-07-23T10:09:32;20.53;;;12.67;;
5245;SDS011;54412;51.206;6.888;2022-07-23T10:12:05;20.27;;;11.37;;
5245;SDS011;54412;51.206;6.888;2022-07-23T10:14:57;13.10;;;9.40;;
5245;SDS011;54412;51.206;6.888;2022-07-23T10:17:25;12.77;;;8.90;;
5245;SDS011;54412;51.206;6.888;2022-07-23T10:19:52;13.30;;;8.40;;
5245;SDS011;54412;51.206;6.888;2022-07-23T10:31:35;10.00;;;6.57;;
5245;SDS011;54412;51.206;6.888;2022-07-23T10:37:16;13.33;;;6.53;;
5245;SDS011;54412;51.206;6.888;2022-07-23T10:40:10;17.23;;;8.27;;
5245;SDS011;54412;51.206;6.888;2022-07-23T10:42:42;9.80;;;6.90;;
5245;SDS011;54412;51.206;6.888;2022-07-23T10:45:45;7.83;;;6.03;;
5245;SDS011;54412;51.206;6.888;2022-07-23T10:53:54;8.73;;;5.43;;
5245;SDS011;54412;51.206;6.888;2022-07-23T10:59:28;7.97;;;6.50;;
5245;SDS011;54412;51.206;6.888;2022-07-23T11:01:54;7.30;;;5.90;;
5245;SDS011;54412;51.206;6.888;2022-07-23T11:04:48;10.40;;;4.77;;
5245;SDS011;54412;51.206;6.888;2022-07-23T11:07:16;7.70;;;4.67;;
5245;SDS011;54412;51.206;6.888;2022-07-23T11:09:42;6.43;;;4.93;;
5245;SDS011;54412;51.206;6.888;2022-07-23T11:17:33;9.37;;;5.40;;
5245;SDS011;54412;51.206;6.888;2022-07-23T11:20:17;8.57;;;6.63;;
5245;SDS011;54412;51.206;6.888;2022-07-23T11:22:49;8.83;;;5.63;;
5245;SDS011;54412;51.206;6.888;2022-07-23T11:27:54;7.17;;;4.93;;
5245;SDS011;54412;51.206;6.888;2022-07-23T11:30:44;7.10;;;4.13;;
5245;SDS011;54412;51.206;6.888;2022-07-23T11:35:37;8.60;;;5.27;;
5245;SDS011;54412;51.206;6.888;2022-07-23T11:38:18;3.50;;;3.07;;
5245;SDS011;54412;51.206;6.888;2022-07-23T11:40:48;3.80;;;2.93;;
5245;SDS011;54412;51.206;6.888;2022-07-23T11:43:19;6.97;;;3.30;;
5245;SDS011;54412;51.206;6.888;2022-07-23T11:45:49;9.40;;;3.47;;
5245;SDS011;54412;51.206;6.888;2022-07-23T11:48:19;5.80;;;2.97;;
5245;SDS011;54412;51.206;6.888;2022-07-23T11:50:48;6.50;;;3.00;;
5245;SDS011;54412;51.206;6.888;2022-07-23T11:56:10;3.20;;;2.80;;
5245;SDS011;54412;51.206;6.888;2022-07-23T11:58:37;4.33;;;2.57;;
5245;SDS011;54412;51.206;6.888;2022-07-23T12:01:18;8.03;;;3.13;;
5245;SDS011;54412;51.206;6.888;2022-07-23T12:03:50;3.50;;;2.70;;
5245;SDS011;54412;51.206;6.888;2022-07-23T12:06:16;3.37;;;2.63;;
5245;SDS011;54412;51.206;6.888;2022-07-23T12:08:43;7.77;;;3.43;;
5245;SDS011;54412;51.206;6.888;2022-07-23T12:11:08;4.17;;;3.13;;
5245;SDS011;54412;51.206;6.888;2022-07-23T12:13:37;7.53;;;3.70;;
5245;SDS011;54412;51.206;6.888;2022-07-23T12:16:03;5.23;;;3.00;;
5245;SDS011;54412;51.206;6.888;2022-07-23T12:18:30;4.00;;;2.70;;
5245;SDS011;54412;51.206;6.888;2022-07-23T12:20:56;2.70;;;2.50;;
5245;SDS011;54412;51.206;6.888;2022-07-23T12:23:29;4.33;;;3.17;;
5245;SDS011;54412;51.206;6.888;2022-07-23T12:25:54;7.13;;;2.27;;
5245;SDS011;54412;51.206;6.888;2022-07-23T12:28:32;3.20;;;2.87;;
5245;SDS011;54412;51.206;6.888;2022-07-23T12:31:02;4.70;;;2.60;;
5245;SDS011;54412;51.206;6.888;2022-07-23T12:36:03;6.20;;;2.87;;
5245;SDS011;54412;51.206;6.888;2022-07-23T12:38:40;3.00;;;2.30;;
5245;SDS011;54412;51.206;6.888;2022-07-23T12:41:09;3.77;;;2.30;;
5245;SDS011;54412;51.206;6.888;2022-07-23T12:43:41;16.40;;;2.40;;
5245;SDS011;54412;51.206;6.888;2022-07-23T12:51:15;6.43;;;2.40;;
5245;SDS011;54412;51.206;6.888;2022-07-23T12:53:45;5.17;;;2.87;;
5245;SDS011;54412;51.206;6.888;2022-07-23T12:56:22;5.33;;;2.93;;
5245;SDS011;54412;51.206;6.888;2022-07-23T13:01:29;7.53;;;3.13;;
5245;SDS011;54412;51.206;6.888;2022-07-23T13:03:59;6.73;;;3.30;;
5245;SDS011;54412;51.206;6.888;2022-07-23T13:06:37;5.77;;;2.93;;
5245;SDS011;54412;51.206;6.888;2022-07-23T13:09:07;4.80;;;3.30;;
5245;SDS011;54412;51.206;6.888;2022-07-23T13:11:37;6.50;;;3.80;;
5245;SDS011;54412;51.206;6.888;2022-07-23T13:14:03;7.00;;;3.20;;
5245;SDS011;54412;51.206;6.888;2022-07-23T13:16:30;5.60;;;2.90;;
5245;SDS011;54412;51.206;6.888;2022-07-23T13:18:58;7.27;;;4.37;;
5245;SDS011;54412;51.206;6.888;2022-07-23T13:21:25;5.60;;;2.87;;
5245;SDS011;54412;51.206;6.888;2022-07-23T13:23:52;4.20;;;3.50;;
5245;SDS011;54412;51.206;6.888;2022-07-23T13:26:19;3.73;;;2.90;;
5245;SDS011;54412;51.206;6.888;2022-07-23T13:28:45;5.60;;;2.90;;
5245;SDS011;54412;51.206;6.888;2022-07-23T13:31:11;10.03;;;3.40;;
5245;SDS011;54412;51.206;6.888;2022-07-23T13:33:38;5.57;;;3.10;;
5245;SDS011;54412;51.206;6.888;2022-07-23T13:36:04;4.63;;;3.40;;
5245;SDS011;54412;51.206;6.888;2022-07-23T13:38:30;9.73;;;2.87;;
5245;SDS011;54412;51.206;6.888;2022-07-23T13:40:57;12.13;;;3.03;;
5245;SDS011;54412;51.206;6.888;2022-07-23T13:43:25;3.53;;;2.90;;
5245;SDS011;54412;51.206;6.888;2022-07-23T13:45:51;6.87;;;2.40;;
5245;SDS011;54412;51.206;6.888;2022-07-23T13:48:18;4.67;;;3.20;;
5245;SDS011;54412;51.206;6.888;2022-07-23T13:50:46;4.83;;;2.90;;
5245;SDS011;54412;51.206;6.888;2022-07-23T13:53:14;3.37;;;2.87;;
5245;SDS011;54412;51.206;6.888;2022-07-23T13:55:46;4.67;;;2.50;;
5245;SDS011;54412;51.206;6.888;2022-07-23T13:58:14;3.40;;;3.03;;
5245;SDS011;54412;51.206;6.888;2022-07-23T14:00:42;4.27;;;3.00;;
5245;SDS011;54412;51.206;6.888;2022-07-23T14:03:11;3.80;;;2.80;;
5245;SDS011;54412;51.206;6.888;2022-07-23T14:05:38;3.60;;;3.33;;
5245;SDS011;54412;51.206;6.888;2022-07-23T14:08:04;4.57;;;2.50;;
5245;SDS011;54412;51.206;6.888;2022-07-23T14:10:30;6.23;;;2.33;;
5245;SDS011;54412;51.206;6.888;2022-07-23T14:12:57;3.00;;;2.70;;
5245;SDS011;54412;51.206;6.888;2022-07-23T14:15:23;2.50;;;2.27;;
5245;SDS011;54412;51.206;6.888;2022-07-23T14:17:52;4.77;;;3.00;;
5245;SDS011;54412;51.206;6.888;2022-07-23T14:20:18;4.60;;;2.97;;
5245;SDS011;54412;51.206;6.888;2022-07-23T14:22:44;2.53;;;2.33;;
5245;SDS011;54412;51.206;6.888;2022-07-23T14:25:10;2.80;;;2.60;;
5245;SDS011;54412;51.206;6.888;2022-07-23T14:27:37;3.13;;;2.93;;
5245;SDS011;54412;51.206;6.888;2022-07-23T14:30:04;3.40;;;2.90;;
5245;SDS011;54412;51.206;6.888;2022-07-23T14:32:32;3.40;;;3.03;;
5245;SDS011;54412;51.206;6.888;2022-07-23T14:34:58;4.47;;;2.90;;
5245;SDS011;54412;51.206;6.888;2022-07-23T14:37:23;3.73;;;2.40;;
5245;SDS011;54412;51.206;6.888;2022-07-23T14:39:50;2.70;;;2.17;;
5245;SDS011;54412;51.206;6.888;2022-07-23T14:42:16;2.20;;;2.00;;
5245;SDS011;54412;51.206;6.888;2022-07-23T14:44:43;4.80;;;2.50;;
5245;SDS011;54412;51.206;6.888;2022-07-23T14:47:09;2.13;;;2.03;;
5245;SDS011;54412;51.206;6.888;2022-07-23T14:49:35;2.30;;;2.20;;
5245;SDS011;54412;51.206;6.888;2022-07-23T14:52:01;2.30;;;2.10;;
5245;SDS011;54412;51.206;6.888;2022-07-23T14:54:28;3.67;;;2.23;;
5245;SDS011;54412;51.206;6.888;2022-07-23T14:56:55;4.10;;;2.30;;
5245;SDS011;54412;51.206;6.888;2022-07-23T14:59:23;4.33;;;2.60;;
5245;SDS011;54412;51.206;6.888;2022-07-23T15:01:49;3.83;;;2.03;;
5245;SDS011;54412;51.206;6.888;2022-07-23T15:04:16;3.23;;;2.20;;
5245;SDS011;54412;51.206;6.888;2022-07-23T15:06:41;2.10;;;2.00;;
5245;SDS011;54412;51.206;6.888;2022-07-23T15:09:08;3.73;;;2.40;;
5245;SDS011;54412;51.206;6.888;2022-07-23T15:11:34;3.10;;;2.60;;
5245;SDS011;54412;51.206;6.888;2022-07-23T15:14:01;2.83;;;2.63;;
5245;SDS011;54412;51.206;6.888;2022-07-23T15:16:28;2.47;;;2.27;;
5245;SDS011;54412;51.206;6.888;2022-07-23T15:18:54;2.70;;;2.50;;
5245;SDS011;54412;51.206;6.888;2022-07-23T15:21:20;5.00;;;3.27;;
5245;SDS011;54412;51.206;6.888;2022-07-23T15:23:46;3.83;;;2.27;;
5245;SDS011;54412;51.206;6.888;2022-07-23T15:26:12;2.37;;;2.17;;
5245;SDS011;54412;51.206;6.888;2022-07-23T15:28:40;5.83;;;2.87;;
5245;SDS011;54412;51.206;6.888;2022-07-23T15:31:06;3.43;;;3.10;;
5245;SDS011;54412;51.206;6.888;2022-07-23T15:33:33;2.10;;;2.00;;
5245;SDS011;54412;51.206;6.888;2022-07-23T15:36:00;2.77;;;2.57;;
5245;SDS011;54412;51.206;6.888;2022-07-23T15:38:26;3.10;;;2.50;;
5245;SDS011;54412;51.206;6.888;2022-07-23T15:40:59;2.83;;;2.50;;
5245;SDS011;54412;51.206;6.888;2022-07-23T15:43:25;3.90;;;2.77;;
5245;SDS011;54412;51.206;6.888;2022-07-23T15:45:51;2.73;;;2.53;;